Albany, New York
Traffic Map
Current Weather Conditions
Albany, New York
Few Clouds
Few Clouds
45°
Feels Like: 42°
Wind Chill: 42° Ceiling: Unl
Heat Index: 45° Visibility: 10mi
Dew Point: 25° Wind: 6mph
Humidity: 46% Direction: 180° (S)
Pressure: 30.24in Gusts: 0mph
Raw Report DataKALB 190151Z 18005KT 10SM FEW260 07/M04 A3024 RMK AO2 SLP241 T00721039
Traffic Incident Summary
Active as of:
Severity:
Category:
InformationThere was an issue retrieving the traffic information for this location. Please try a different location or try again shortly.
Advertisements
At Last! Intellicast now available for iPhone and Android